• Join FlightAware (Why Join?)
  • Login
  • US Flag 
03:45AM EST


 

Airport Tracker/Info


-or-


 

Live Flight TrackerFlight Track Log ✈ AWE3827 ✈ 15-Apr-2013 ✈ KCLT - KBNA

Flight Track Log - Related Links

Times and Time Zones

All times are in EDT time to prevent confusion due to time zone crossing. See the AWE3827 flight status page for this flight to view local times or setup timezone preferences in your user account.

Time Position Orientation Groundspeed Altitude Reporting Facility
EDT Latitude Longitude Course Direction KTS MPH feet Rate Location/Type
08:27AM 35.1881 -80.9494 239° Southwest 159 183 1,800  Level FAA TRACON SMA TRACON (SMA)
08:27AM 35.1694 -80.9489 179° South 182 209 2,500 1,500 Climbing FAA TRACON SMA TRACON (SMA)
08:28AM 35.1528 -80.9494 182° South 204 235 2,800 1,020 Climbing FAA TRACON SMA TRACON (SMA)
08:28AM 35.1342 -80.9553 194° South 228 262 3,200 1,020 Climbing FAA TRACON SMA TRACON (SMA)
08:28AM 35.1178 -80.9708 218° Southwest 250 288 3,500 1,800 Climbing FAA TRACON SMA TRACON (SMA)
08:29AM 35.1119 -81.0033 258° West 258 297 4,400 2,580 Climbing FAA TRACON SMA TRACON (SMA)
08:29AM 35.1142 -81.0297 276° West 250 288 5,300 3,120 Climbing FAA TRACON SMA TRACON (SMA)
08:29AM 35.1181 -81.0633 278° West 257 296 6,500 3,000 Climbing FAA TRACON SMA TRACON (SMA)
08:30AM 35.2565 -81.1553 282° West  Level FlightAware Approximate
08:30AM 35.1206 -81.0903 276° West 260 299 7,300  Level FAA TRACON SMA TRACON (SMA)
08:30AM 35.1231 -81.1183 276° West 265 305 8,100 2,520 Climbing FAA TRACON SMA TRACON (SMA)
08:30AM 35.1256 -81.1467 276° West 268 308 9,000 2,340 Climbing FAA TRACON SMA TRACON (SMA)
08:31AM 35.2459 -81.2651 242° Southwest  Level FlightAware Approximate
08:31AM 35.1317 -81.2094 277° West 270 311 10,500  Level FAA TRACON SMA TRACON (SMA)
08:31AM 35.1347 -81.2353 278° West 276 318 10,800 1,020 Climbing FAA TRACON SMA TRACON (SMA)
08:32AM 35.1995 -81.3677 239° Southwest  Level FlightAware Approximate
08:32AM 35.1361 -81.2808 272° West 318 366 11,200  Level FAA TRACON SMA TRACON (SMA)
08:32AM 35.1381 -81.3147 274° West 328 377 11,500 900 Climbing FAA TRACON SMA TRACON (SMA)
08:32AM 35.1403 -81.3497 274° West 339 390 11,800 1,020 Climbing FAA TRACON SMA TRACON (SMA)
08:33AM 35.1425 -81.3939 274° West 340 391 12,200 900 Climbing FAA TRACON SMA TRACON (SMA)
08:33AM 35.1453 -81.4269 276° West 344 396 12,400 900 Climbing FAA TRACON SMA TRACON (SMA)
08:33AM 35.1469 -81.4675 273° West 351 404 12,800 1,200 Climbing FAA TRACON SMA TRACON (SMA)
08:34AM 35.1464 -81.5156 269° West 369 425 13,200 1,320 Climbing FAA TRACON SMA TRACON (SMA)
08:34AM 35.1447 -81.5536 267° West 367 422 13,700 1,500 Climbing FAA TRACON SMA TRACON (SMA)
08:34AM 35.1419 -81.5917 265° West 367 422 14,200 1,500 Climbing FAA TRACON SMA TRACON (SMA)
08:35AM 35.1397 -81.6386 267° West 367 422 14,700 1,500 Climbing FAA TRACON SMA TRACON (SMA)
08:35AM 35.1356 -81.6775 263° West 366 421 15,200 1,500 Climbing FAA TRACON SMA TRACON (SMA)
08:35AM 35.1325 -81.7156 264° West 365 420 15,700 1,560 Climbing FAA TRACON SMA TRACON (SMA)
08:36AM 35.1289 -81.7625 265° West 364 419 16,300 1,500 Climbing FAA TRACON SMA TRACON (SMA)
08:36AM 35.1258 -81.8000 264° West 362 417 16,700 1,380 Climbing FAA TRACON SMA TRACON (SMA)
08:36AM 35.1231 -81.8372 265° West 360 414 17,200 1,380 Climbing FAA TRACON SMA TRACON (SMA)
08:37AM 35.1169 -81.9203 265° West 356 410 18,100 1,380 Climbing FAA TRACON SMA TRACON (SMA)
08:37AM 35.1142 -81.9569 265° West 354 407 18,600 1,320 Climbing FAA TRACON SMA TRACON (SMA)
08:38AM 35.1094 -82.0019 263° West 351 404 19,000 1,020 Climbing FAA TRACON SMA TRACON (SMA)
08:38AM 35.1058 -82.0386 263° West 353 406 19,300 900 Climbing FAA TRACON SMA TRACON (SMA)
08:38AM 35.1036 -82.0758 266° West 354 407 19,600 420 Climbing FAA TRACON SMA TRACON (SMA)
08:39AM 35.1036 -82.0758 292° West 354 407 19,600 960 Level FAA TRACON SMA TRACON (SMA)
08:40AM 35.0933 -82.2186 265° West 364 419 20,700 1,140 Climbing Atlanta Center
08:41AM 35.1056 -82.3300 278° West 337 388 21,700 960 Climbing Atlanta Center
08:42AM 35.1672 -82.4253 308° West 337 388 22,700 1,020 Climbing Atlanta Center
08:43AM 35.2250 -82.5311 304° West 350 403 23,800 960 Climbing Atlanta Center
08:44AM 35.2742 -82.6269 302° West 350 403 24,700 900 Climbing Atlanta Center
08:45AM 35.3233 -82.7303 300° West 350 403 25,700 600 Climbing Atlanta Center
08:46AM 35.3744 -82.8314 302° West 355 409 26,000 120 Climbing Atlanta Center
08:47AM 35.4211 -82.9300 300° West 361 415 26,000  Level Atlanta Center
08:48AM 35.4783 -83.0392 303° West 368 423 26,000  Level Atlanta Center
08:49AM 35.5356 -83.1531 302° West 388 447 26,000  Level Atlanta Center
08:50AM 35.5947 -83.2675 302° West 394 453 26,000  Level Atlanta Center
08:51AM 35.6519 -83.3819 302° West 394 453 26,000  Level Atlanta Center
08:52AM 35.7108 -83.4992 302° West 399 459 26,000  Level Atlanta Center
08:53AM 35.7697 -83.6164 302° West 399 459 26,000  Level Atlanta Center
08:54AM 35.8264 -83.7367 300° West 399 459 26,000  Level Atlanta Center
08:55AM 35.8850 -83.8542 302° West 399 459 26,000  Level Atlanta Center
08:56AM 35.8936 -83.9900 275° West 386 444 26,000  Level Atlanta Center
08:57AM 35.8664 -84.1258 256° West 391 450 26,000 -300 Level Atlanta Center
08:58AM 35.8433 -84.2642 258° West 402 463 25,500 -840 Descending Atlanta Center
08:59AM 35.8200 -84.4075 259° West 416 479 24,400 -1,080 Descending Atlanta Center
09:00AM 35.7964 -84.5508 259° West 428 493 23,400 -1,020 Descending Atlanta Center
09:01AM 35.7708 -84.6939 258° West 428 493 22,400 -1,020 Descending Atlanta Center
09:02AM 35.7428 -84.8497 258° West 428 493 21,400 -720 Descending Atlanta Center
09:04AM 35.6858 -85.1864 258° West 405 466 20,000 -420 Descending Memphis Center
09:05AM 35.6622 -85.3208 258° West 405 466 20,000  Level Memphis Center
09:06AM 35.6428 -85.4600 260° West 410 472 20,000  Level Memphis Center
09:07AM 35.6483 -85.6000 273° West 410 472 20,000 -1,140 Level Memphis Center
09:08AM 35.6533 -85.7353 273° West 404 465 17,800 -1,920 Descending Memphis Center
09:09AM 35.6581 -85.8628 273° West 392 451 16,200 -1,620 Descending Memphis Center
09:10AM 35.6625 -85.9903 272° West 384 442 14,600 -1,680 Descending Memphis Center
09:11AM 35.6961 -86.1161 288° West 384 442 12,900 -1,860 Descending Memphis Center
09:12AM 35.7722 -86.2069 316° Northwest 372 428 10,900 -1,500 Descending Memphis Center
09:13AM 35.8419 -86.2983 313° West 373 429 10,000 -480 Descending Memphis Center
09:14AM 35.9094 -86.3872 313° West 361 415 10,000 -540 Level Memphis Center
09:15AM 35.9636 -86.4564 314° West 307 353 9,000 -1,500 Descending Memphis Center
09:16AM 36.0094 -86.5183 312° West 283 326 7,000 -1,740 Descending Memphis Center
09:17AM 36.0633 -86.5775 318° Northwest 271 312 5,600 -1,020 Descending Memphis Center
09:18AM 36.1253 -86.5567 15° North 220 253 5,000 -300 Descending Memphis Center
09:19AM 36.1808 -86.5333 19° North 208 239 5,100  Climbing Memphis Center
09:20AM 36.2386 -86.5100 18° North 208 239 5,000 -600 Descending Memphis Center
09:21AM 36.2947 -86.5047 North 208 239 4,000 -540 Descending Memphis Center
09:22AM 36.3117 -86.5814 285° West 178 205 4,000  Level Memphis Center